Webcam op het Zuiden Meer informatie Webcam op het Zuiden


Webcam op het Westen Meer informatie Webcam op het Westen


Onweer radar Meer informatie blitzortung!


Regen radar  rain snow radar


Lokaal brand risico:
CBI


Regionaal brand risico: Meer informatie


Lokaal brand risico:
Gebaseerd op actuele waarde
CBI


Bezoek ook deze websites:

Template documentation
and downloads

And another site



Het weer levert geen direct gevaar op.    Er zijn geen waarschuwingen afgegeven.

METAR rapporten vliegvelden

   
ETWM - Meppen, Germany
Afstand tot: O 29 km
Gewijzigd: 27-10-2021 02:20
  
  
   Wind: ZZW 18.5 km/h
Wind: ZZW 18.5 km/h
Temperatuur: 13°C
Dauwpunt: 11°C
Vochtigheid: 88%
Barometer: 1019 hPa
ETWM 270020Z AUTO 20010KT //// // ////// 13/11 Q1019 ///
EHGG - Groningen/Eelde, Netherlands
Afstand tot: NNW 47 km
Gewijzigd: 27-10-2021 02:55
Bewolking  
Bewolking  
   Wind: ZW 25.9 km/h
Wind: ZW 25.9 km/h
Temperatuur: 14°C
Dauwpunt: 12°C
Vochtigheid: 88%
Barometer: 1018 hPa
Bewolking: Bewolking
Zicht: meer dan 10 km
Bewolking: Gedeeltelijk bewolkt 900 ft,
Grotendeels bewolkt 1100 ft,
Bewolking 1300 ft
EHGG 270055Z AUTO 22014KT 190V250 9999 SCT009 BKN011 OVC013 14/12 Q1018
EDDG - Muenster/Osnabru, Germany
Afstand tot: ZO 87 km
Gewijzigd: 27-10-2021 02:50
Grotendeels bewolkt  
Grotendeels bewolkt  
   Wind: ZZW 16.7 km/h
Wind: ZZW 16.7 km/h
Temperatuur: 13°C
Dauwpunt: 11°C
Vochtigheid: 88%
Barometer: 1021 hPa
Bewolking: Grotendeels bewolkt
Zicht: meer dan 10 km
Bewolking: Grotendeels bewolkt 1300 ft,
Grotendeels bewolkt 3000 ft
EDDG 270050Z 21009KT 180V240 9999 BKN013 BKN030 13/11 Q1021 TEMPO SCT012
EHLW - Leeuwarden Rnlaf, Netherlands
Afstand tot: NW 93 km
Gewijzigd: 27-10-2021 02:55
Bewolking  
Bewolking  
   Wind: ZW 25.9 km/h
Wind: ZW 25.9 km/h
Temperatuur: 14°C
Dauwpunt: 13°C
Vochtigheid: 94%
Barometer: 1018 hPa
Bewolking: Bewolking
Zicht: meer dan 10 km
Bewolking: Bewolking 1500 ft
EHLW 270055Z AUTO 22014KT 9999 OVC015 14/13 Q1018 WHT
ETNT - Wittmundhaven(Ga, Germany
Afstand tot: NNO 100 km
Gewijzigd: 27-10-2021 02:20
Grotendeels bewolkt  
Grotendeels bewolkt  
   Wind: ZZW 20.4 km/h
Wind: ZZW 20.4 km/h
Temperatuur: 13°C
Dauwpunt: 12°C
Vochtigheid: 94%
Barometer: 1017 hPa
Bewolking: Grotendeels bewolkt
Zicht: 8 km
Bewolking: Gedeeltelijk bewolkt 800 ft,
Grotendeels bewolkt 4000 ft
ETNT 270020Z 21011KT 8000 SCT008 BKN040 13/12 Q1017 BLU
ETND - Diepholz (ger-Af, Germany
Afstand tot: O 104 km
Gewijzigd: 26-10-2021 15:20
Verouderd
Grotendeels bewolkt  
Grotendeels bewolkt  
   Wind: ZW 20.4 km/h
Wind: ZW 20.4 km/h
Temperatuur: 14°C
Dauwpunt: 9°C
Vochtigheid: 72%
Barometer: 1019 hPa
Bewolking: Grotendeels bewolkt
Zicht: meer dan 10 km
Bewolking: Licht bewolkt 2300 ft,
Grotendeels bewolkt 12000 ft,
Grotendeels bewolkt 25000 ft
ETND 261320Z 23011KT 9999 FEW023 BKN120 BKN250 14/09 Q1019 BLU
ETNT - Wittmundhaven(Ga, Germany
Afstand tot: NNO 102 km
Gewijzigd: 27-10-2021 02:20
Grotendeels bewolkt  
Grotendeels bewolkt  
   Wind: ZZW 20.4 km/h
Wind: ZZW 20.4 km/h
Temperatuur: 13°C
Dauwpunt: 12°C
Vochtigheid: 94%
Barometer: 1017 hPa
Bewolking: Grotendeels bewolkt
Zicht: 8 km
Bewolking: Gedeeltelijk bewolkt 800 ft,
Grotendeels bewolkt 4000 ft
ETNT 270020Z 21011KT 8000 SCT008 BKN040 13/12 Q1017 BLU
EHDL - Deelen Rnlafb, Netherlands
Afstand tot: ZW 103 km
Gewijzigd: 27-10-2021 02:55
Bewolking  
Bewolking  
   Wind: ZZW 20.4 km/h
Wind: ZZW 20.4 km/h
Temperatuur: 13°C
Dauwpunt: 12°C
Vochtigheid: 94%
Barometer: 1021 hPa
Bewolking: Bewolking
Zicht: meer dan 10 km
Bewolking: Gedeeltelijk bewolkt 800 ft,
Grotendeels bewolkt 900 ft,
Bewolking 1000 ft
EHDL 270055Z AUTO 21011KT 150V260 9999 SCT008 BKN009 OVC010 13/12 Q1021 GRN
EHMA - Awg-1 Sea, Netherlands
Afstand tot: NW 105 km
Gewijzigd: 27-10-2021 02:55
Grotendeels bewolkt  
Grotendeels bewolkt  
   Wind: ZW 38.9 km/h
Wind: ZW 38.9 km/h
Temperatuur: 14°C
Dauwpunt: 13°C
Vochtigheid: 94%
Barometer: 1017 hPa
Bewolking: Grotendeels bewolkt
Zicht: meer dan 10 km
Bewolking: Licht bewolkt 900 ft,
Gedeeltelijk bewolkt 1000 ft,
Grotendeels bewolkt 2300 ft
EHMA 270055Z AUTO 22021KT 9999 // FEW009 SCT010 BKN023 14/13 Q1017 RE//
EDDW - Bremen, Germany
Afstand tot: ONO 135 km
Gewijzigd: 27-10-2021 02:50
Grotendeels bewolkt  
Grotendeels bewolkt  
   Wind: ZW 24.1 km/h
Wind: ZW 24.1 km/h
Temperatuur: 13°C
Dauwpunt: 10°C
Vochtigheid: 82%
Barometer: 1019 hPa
Bewolking: Grotendeels bewolkt
Zicht: meer dan 10 km
Bewolking: Grotendeels bewolkt 1400 ft,
Grotendeels bewolkt 3400 ft
EDDW 270050Z 22013KT 9999 BKN014 BKN034 13/10 Q1019
EHVL - Vlieland Island, Netherlands
Afstand tot: WNW 138 km
Gewijzigd: 27-10-2021 02:58
Grotendeels bewolkt  
Grotendeels bewolkt  
   Wind: ZW 37 km/h
Wind: ZW 37 km/h
Temperatuur: 14°C
Dauwpunt: 13°C
Vochtigheid: 94%
Barometer: 1017 hPa
Bewolking: Grotendeels bewolkt
Zicht: meer dan 10 km
Bewolking: Licht bewolkt 1800 ft,
Gedeeltelijk bewolkt 2200 ft,
Grotendeels bewolkt 2700 ft
EHVL 270058Z AUTO 23020KT 9999 FEW018 SCT022 BKN027 14/13 Q1017 WHT
EDLV - Niederrhein, Germany
Afstand tot: ZZW 139 km
Gewijzigd: 26-10-2021 23:50
Verouderd
Helder  
Helder  
   Wind: ZZW 16.7 km/h
Wind: ZZW 16.7 km/h
Temperatuur: 13°C
Dauwpunt: 11°C
Vochtigheid: 88%
Barometer: 1022 hPa
Zicht: meer dan 10 km
Bewolking: Helder
EDLV 262150Z 21009KT CAVOK 13/11 Q1022
EHKD - De Kooy (navy), Netherlands
Afstand tot: W 144 km
Gewijzigd: 27-10-2021 02:55
Bewolking  
Bewolking  
   Wind: ZW 25.9 km/h
Wind: ZW 25.9 km/h
Temperatuur: 15°C
Dauwpunt: 13°C
Vochtigheid: 88%
Barometer: 1018 hPa
Bewolking: Bewolking
Zicht: meer dan 10 km
Bewolking: Licht bewolkt 1200 ft,
Bewolking 19000 ft
EHKD 270055Z AUTO 23014KT 9999 FEW012 OVC190 15/13 Q1018 BLU NOSIG
EDLW - Dortmund/Wickede, Germany
Afstand tot: ZZO 150 km
Gewijzigd: 27-10-2021 02:50
Bewolking  
Bewolking  
   Wind: ZZW 24.1 km/h
Wind: ZZW 24.1 km/h
Temperatuur: 12°C
Dauwpunt: 10°C
Vochtigheid: 88%
Barometer: 1022 hPa
Bewolking: Bewolking
Zicht: meer dan 10 km
Bewolking: Gedeeltelijk bewolkt 1100 ft,
Bewolking 3300 ft
EDLW 270050Z AUTO 21013KT 9999 // SCT011/// OVC033/// 12/10 Q1022
EHVK - Volkel Rnlafb, Netherlands
Afstand tot: ZZW 149 km
Gewijzigd: 27-10-2021 02:55
Grotendeels bewolkt  
Grotendeels bewolkt  
   Wind: ZW 22.2 km/h
Wind: ZW 22.2 km/h
Temperatuur: 13°C
Dauwpunt: 12°C
Vochtigheid: 94%
Barometer: 1021 hPa
Bewolking: Grotendeels bewolkt
Zicht: meer dan 10 km
Bewolking: Licht bewolkt 800 ft,
Gedeeltelijk bewolkt 1300 ft,
Grotendeels bewolkt 1500 ft
EHVK 270055Z AUTO 22012KT 190V260 9999 FEW008 SCT013 BKN015 13/12 Q1021 GRN
EDLW - Dortmund/Wickede, Germany
Afstand tot: ZZO 150 km
Gewijzigd: 27-10-2021 02:50
Bewolking  
Bewolking  
   Wind: ZZW 24.1 km/h
Wind: ZZW 24.1 km/h
Temperatuur: 12°C
Dauwpunt: 10°C
Vochtigheid: 88%
Barometer: 1022 hPa
Bewolking: Bewolking
Zicht: meer dan 10 km
Bewolking: Gedeeltelijk bewolkt 1100 ft,
Bewolking 3300 ft
EDLW 270050Z AUTO 21013KT 9999 // SCT011/// OVC033/// 12/10 Q1022
EHMG - L9-Ff-1 Sea, Netherlands
Afstand tot: NW 155 km
Gewijzigd: 27-10-2021 02:55
Grotendeels bewolkt  
Grotendeels bewolkt  
   Wind: ZW 51.9 km/h
Wind: ZW 51.9 km/h
Temperatuur: 15°C
Dauwpunt: 13°C
Vochtigheid: 88%
Barometer: 1017 hPa
Bewolking: Grotendeels bewolkt
Zicht: 9 km
Bewolking: Grotendeels bewolkt 1700 ft,
Grotendeels bewolkt 2100 ft
EHMG 270055Z AUTO 23028KT 9000 BKN017 BKN021 15/13 Q1017
ETHB - Buckeburg(Ger-Ar, Germany
Afstand tot: OZO 161 km
Gewijzigd: 27-10-2021 02:50
Grotendeels bewolkt  
Grotendeels bewolkt  
   Wind: ZW 22.2 km/h
Wind: ZW 22.2 km/h
Temperatuur: 12°C
Dauwpunt: 9°C
Vochtigheid: 82%
Barometer: 1021 hPa
Bewolking: Grotendeels bewolkt
Zicht: meer dan 10 km
Bewolking: Grotendeels bewolkt 1300 ft
ETHB 270050Z 23012KT 9999 BKN013 12/09 Q1021 GRN
ETMN - Nordholz (ger-Na, Germany
Afstand tot: NO 164 km
Gewijzigd: 27-10-2021 02:50
Grotendeels bewolkt  
Grotendeels bewolkt  
   Wind: ZW 22.2 km/h
Wind: ZW 22.2 km/h
Temperatuur: 13°C
Dauwpunt: 11°C
Vochtigheid: 88%
Barometer: 1017 hPa
Bewolking: Grotendeels bewolkt
Zicht: 8 km
Bewolking: Grotendeels bewolkt 1000 ft
ETMN 270050Z 23012KT 8000 BKN010 13/11 Q1017 GRN FCST CNL
EDDL - Duesseldorf, Germany
Afstand tot: Z 165 km
Gewijzigd: 27-10-2021 02:50
Grotendeels bewolkt  
Grotendeels bewolkt  
   Wind: ZZW 18.5 km/h
Wind: ZZW 18.5 km/h
Temperatuur: 13°C
Dauwpunt: 11°C
Vochtigheid: 88%
Barometer: 1023 hPa
Bewolking: Grotendeels bewolkt
Zicht: meer dan 10 km
Bewolking: Gedeeltelijk bewolkt 1200 ft,
Grotendeels bewolkt 3400 ft
EDDL 270050Z 21010KT 9999 SCT012 BKN034 13/11 Q1023 TEMPO BKN012
EDLN - Monchengladbach, Germany
Afstand tot: Z 174 km
Gewijzigd: 27-10-2021 02:50
Grotendeels bewolkt  
Grotendeels bewolkt  
   Wind: ZZW 11.1 km/h
Wind: ZZW 11.1 km/h
Temperatuur: 13°C
Dauwpunt: 11°C
Vochtigheid: 88%
Barometer: 1023 hPa
Bewolking: Grotendeels bewolkt
Zicht: meer dan 10 km
Bewolking: Grotendeels bewolkt 3900 ft,
Grotendeels bewolkt 25000 ft
EDLN 270050Z AUTO 21006KT 180V240 9999 // BKN039/// BKN250/// 13/11 Q1023

Script ontwikkeld door  Saratoga-weather.org Aangepast voor de template door  Weerstation Leuven

U vindt ons ook hier:

Het Weer Aktueel

European Weather Network

Weather Underground

Wetterpage 24

Apparatuur in gebruik:

Weerstation
Davis VP2

Weerprogramma
Meteohub

Hardware
RaspberryPI, Wireless Weather Envoy, MeteoStick, TP-Link MR3020

Leverancier
Weerhuisje.nl weerstations

Davis VP2

Meteohub

RaspberryPI, Wireless Weather Envoy, MeteoStick, TP-Link MR3020

Weerhuisje.nl weerstations